sensor_id;sensor_type;location;lat;lon;timestamp;temperature;humidity
32706;DHT22;19094;50.972;3.538;2023-07-30T14:36:57;23.50;55.10
32706;DHT22;19094;50.972;3.538;2023-07-30T14:39:23;23.80;54.40
32706;DHT22;19094;50.972;3.538;2023-07-30T14:41:48;23.80;54.50
32706;DHT22;19094;50.972;3.538;2023-07-30T14:44:14;23.80;54.50
32706;DHT22;19094;50.972;3.538;2023-07-30T14:46:40;23.80;54.60
32706;DHT22;19094;50.972;3.538;2023-07-30T14:49:05;23.90;54.80
32706;DHT22;19094;50.972;3.538;2023-07-30T14:51:31;24.00;54.90
32706;DHT22;19094;50.972;3.538;2023-07-30T14:53:57;24.00;55.20
32706;DHT22;19094;50.972;3.538;2023-07-30T14:56:22;24.00;55.20
32706;DHT22;19094;50.972;3.538;2023-07-30T14:58:48;24.00;55.60
32706;DHT22;19094;50.972;3.538;2023-07-30T15:01:14;24.10;55.60
32706;DHT22;19094;50.972;3.538;2023-07-30T15:03:39;24.00;55.50
32706;DHT22;19094;50.972;3.538;2023-07-30T15:06:05;24.00;55.80
32706;DHT22;19094;50.972;3.538;2023-07-30T15:08:31;24.00;56.30
32706;DHT22;19094;50.972;3.538;2023-07-30T15:10:57;24.10;55.90
32706;DHT22;19094;50.972;3.538;2023-07-30T15:13:23;24.00;56.00
32706;DHT22;19094;50.972;3.538;2023-07-30T15:15:50;24.00;56.30
32706;DHT22;19094;50.972;3.538;2023-07-30T15:18:16;24.00;56.20
32706;DHT22;19094;50.972;3.538;2023-07-30T15:20:42;24.00;56.50
32706;DHT22;19094;50.972;3.538;2023-07-30T15:23:08;24.00;56.50
32706;DHT22;19094;50.972;3.538;2023-07-30T15:25:36;24.00;56.80
32706;DHT22;19094;50.972;3.538;2023-07-30T15:28:02;24.00;56.80
32706;DHT22;19094;50.972;3.538;2023-07-30T15:30:28;24.00;57.10
32706;DHT22;19094;50.972;3.538;2023-07-30T15:32:54;24.00;57.20
32706;DHT22;19094;50.972;3.538;2023-07-30T15:35:20;23.90;57.70
32706;DHT22;19094;50.972;3.538;2023-07-30T15:37:46;23.90;58.00
32706;DHT22;19094;50.972;3.538;2023-07-30T15:40:11;23.80;58.20
32706;DHT22;19094;50.972;3.538;2023-07-30T15:42:38;23.80;58.40
32706;DHT22;19094;50.972;3.538;2023-07-30T15:45:05;23.80;58.60
32706;DHT22;19094;50.972;3.538;2023-07-30T15:47:31;23.80;58.60
32706;DHT22;19094;50.972;3.538;2023-07-30T15:49:57;23.80;58.80
32706;DHT22;19094;50.972;3.538;2023-07-30T15:52:22;23.80;59.20
32706;DHT22;19094;50.972;3.538;2023-07-30T15:54:48;23.80;59.50
32706;DHT22;19094;50.972;3.538;2023-07-30T15:57:14;23.70;59.80
32706;DHT22;19094;50.972;3.538;2023-07-30T15:59:44;23.60;60.00
32706;DHT22;19094;50.972;3.538;2023-07-30T16:02:11;23.60;60.30
32706;DHT22;19094;50.972;3.538;2023-07-30T16:04:36;23.50;61.20
32706;DHT22;19094;50.972;3.538;2023-07-30T16:07:02;23.50;61.40
32706;DHT22;19094;50.972;3.538;2023-07-30T16:09:29;23.50;61.60
32706;DHT22;19094;50.972;3.538;2023-07-30T16:11:55;23.50;62.30
32706;DHT22;19094;50.972;3.538;2023-07-30T16:14:20;23.50;62.10
32706;DHT22;19094;50.972;3.538;2023-07-30T16:16:47;23.50;63.00
32706;DHT22;19094;50.972;3.538;2023-07-30T16:19:14;23.50;62.50
32706;DHT22;19094;50.972;3.538;2023-07-30T16:21:41;23.50;62.70
32706;DHT22;19094;50.972;3.538;2023-07-30T16:24:09;23.40;63.10
32706;DHT22;19094;50.972;3.538;2023-07-30T16:26:35;23.30;63.80
32706;DHT22;19094;50.972;3.538;2023-07-30T16:29:01;23.30;64.00
32706;DHT22;19094;50.972;3.538;2023-07-30T16:31:26;23.30;63.90
32706;DHT22;19094;50.972;3.538;2023-07-30T16:33:52;23.40;63.90
32706;DHT22;19094;50.972;3.538;2023-07-30T16:36:18;23.30;63.60
32706;DHT22;19094;50.972;3.538;2023-07-30T16:38:43;23.30;63.70
32706;DHT22;19094;50.972;3.538;2023-07-30T16:41:09;23.30;63.70
32706;DHT22;19094;50.972;3.538;2023-07-30T16:43:35;23.30;63.70
32706;DHT22;19094;50.972;3.538;2023-07-30T16:46:01;23.30;63.40
32706;DHT22;19094;50.972;3.538;2023-07-30T16:48:29;23.30;63.60
32706;DHT22;19094;50.972;3.538;2023-07-30T16:50:54;23.30;63.40
32706;DHT22;19094;50.972;3.538;2023-07-30T16:53:20;23.30;64.30
32706;DHT22;19094;50.972;3.538;2023-07-30T16:55:46;23.30;63.50
32706;DHT22;19094;50.972;3.538;2023-07-30T16:58:11;23.30;63.20
32706;DHT22;19094;50.972;3.538;2023-07-30T17:00:37;23.30;63.40
32706;DHT22;19094;50.972;3.538;2023-07-30T17:03:03;23.30;63.50
32706;DHT22;19094;50.972;3.538;2023-07-30T17:05:30;23.30;63.40
32706;DHT22;19094;50.972;3.538;2023-07-30T17:07:56;23.30;63.50
32706;DHT22;19094;50.972;3.538;2023-07-30T17:10:22;23.30;63.30
32706;DHT22;19094;50.972;3.538;2023-07-30T17:12:47;23.30;63.30
32706;DHT22;19094;50.972;3.538;2023-07-30T17:15:13;23.30;63.40
32706;DHT22;19094;50.972;3.538;2023-07-30T17:17:39;23.30;63.40
32706;DHT22;19094;50.972;3.538;2023-07-30T17:20:05;23.20;63.40
32706;DHT22;19094;50.972;3.538;2023-07-30T17:22:31;23.30;63.30
32706;DHT22;19094;50.972;3.538;2023-07-30T17:24:57;23.20;63.40
32706;DHT22;19094;50.972;3.538;2023-07-30T17:27:25;23.20;63.40
32706;DHT22;19094;50.972;3.538;2023-07-30T17:29:51;23.20;64.30
32706;DHT22;19094;50.972;3.538;2023-07-30T17:32:21;23.20;63.40
32706;DHT22;19094;50.972;3.538;2023-07-30T17:34:47;23.20;63.50
32706;DHT22;19094;50.972;3.538;2023-07-30T17:37:12;23.20;63.50
32706;DHT22;19094;50.972;3.538;2023-07-30T17:39:38;23.30;63.20
32706;DHT22;19094;50.972;3.538;2023-07-30T17:42:04;23.20;63.70
32706;DHT22;19094;50.972;3.538;2023-07-30T17:44:30;23.20;63.20
32706;DHT22;19094;50.972;3.538;2023-07-30T17:46:56;23.30;63.40
32706;DHT22;19094;50.972;3.538;2023-07-30T17:49:22;23.30;63.50
32706;DHT22;19094;50.972;3.538;2023-07-30T17:51:50;23.20;63.40
32706;DHT22;19094;50.972;3.538;2023-07-30T17:54:16;23.20;63.40
32706;DHT22;19094;50.972;3.538;2023-07-30T17:56:41;23.20;63.30
32706;DHT22;19094;50.972;3.538;2023-07-30T17:59:08;23.20;63.20
32706;DHT22;19094;50.972;3.538;2023-07-30T18:01:35;23.30;63.10
32706;DHT22;19094;50.972;3.538;2023-07-30T18:04:01;23.30;62.80
32706;DHT22;19094;50.972;3.538;2023-07-30T18:06:26;23.30;63.00
32706;DHT22;19094;50.972;3.538;2023-07-30T18:08:52;23.20;63.20
32706;DHT22;19094;50.972;3.538;2023-07-30T18:11:18;23.20;62.90
32706;DHT22;19094;50.972;3.538;2023-07-30T18:13:43;23.30;62.90
32706;DHT22;19094;50.972;3.538;2023-07-30T18:16:09;23.30;63.00
32706;DHT22;19094;50.972;3.538;2023-07-30T18:18:35;23.30;62.80
32706;DHT22;19094;50.972;3.538;2023-07-30T18:21:00;23.30;63.00
32706;DHT22;19094;50.972;3.538;2023-07-30T18:23:26;23.20;63.30
32706;DHT22;19094;50.972;3.538;2023-07-30T18:25:52;23.20;63.30
32706;DHT22;19094;50.972;3.538;2023-07-30T18:28:17;23.20;63.10
32706;DHT22;19094;50.972;3.538;2023-07-30T18:30:43;23.20;62.70
32706;DHT22;19094;50.972;3.538;2023-07-30T18:33:09;23.30;63.00
32706;DHT22;19094;50.972;3.538;2023-07-30T18:35:35;23.20;62.90
32706;DHT22;19094;50.972;3.538;2023-07-30T18:38:01;23.20;63.20
32706;DHT22;19094;50.972;3.538;2023-07-30T18:40:27;23.20;63.20
32706;DHT22;19094;50.972;3.538;2023-07-30T18:42:52;23.20;63.30
32706;DHT22;19094;50.972;3.538;2023-07-30T18:45:18;23.20;63.00
32706;DHT22;19094;50.972;3.538;2023-07-30T18:47:44;23.20;63.30
32706;DHT22;19094;50.972;3.538;2023-07-30T18:50:10;23.10;63.40
32706;DHT22;19094;50.972;3.538;2023-07-30T18:52:37;23.00;63.40
32706;DHT22;19094;50.972;3.538;2023-07-30T18:55:03;23.10;63.20
32706;DHT22;19094;50.972;3.538;2023-07-30T18:57:28;23.10;63.40
32706;DHT22;19094;50.972;3.538;2023-07-30T18:59:54;23.10;63.40
32706;DHT22;19094;50.972;3.538;2023-07-30T19:02:20;23.00;63.50
32706;DHT22;19094;50.972;3.538;2023-07-30T19:04:45;23.00;63.50
32706;DHT22;19094;50.972;3.538;2023-07-30T19:07:11;23.10;63.50
32706;DHT22;19094;50.972;3.538;2023-07-30T19:09:37;23.10;63.30
32706;DHT22;19094;50.972;3.538;2023-07-30T19:12:03;23.00;63.40
32706;DHT22;19094;50.972;3.538;2023-07-30T19:14:28;23.00;63.60
32706;DHT22;19094;50.972;3.538;2023-07-30T19:16:54;23.00;64.40
32706;DHT22;19094;50.972;3.538;2023-07-30T19:19:20;23.00;63.60
32706;DHT22;19094;50.972;3.538;2023-07-30T19:21:45;23.00;63.80
32706;DHT22;19094;50.972;3.538;2023-07-30T19:24:11;22.90;63.80
32706;DHT22;19094;50.972;3.538;2023-07-30T19:26:37;22.90;63.90
32706;DHT22;19094;50.972;3.538;2023-07-30T19:29:02;22.90;64.10
32706;DHT22;19094;50.972;3.538;2023-07-30T19:31:31;23.00;64.40
32706;DHT22;19094;50.972;3.538;2023-07-30T19:34:07;23.10;63.70
32706;DHT22;19094;50.972;3.538;2023-07-30T19:36:34;23.10;64.30
32706;DHT22;19094;50.972;3.538;2023-07-30T19:39:01;22.90;64.10
32706;DHT22;19094;50.972;3.538;2023-07-30T19:41:27;22.70;64.80
32706;DHT22;19094;50.972;3.538;2023-07-30T19:43:53;22.70;65.40
32706;DHT22;19094;50.972;3.538;2023-07-30T19:46:18;22.60;65.70
32706;DHT22;19094;50.972;3.538;2023-07-30T19:48:44;22.60;65.70
32706;DHT22;19094;50.972;3.538;2023-07-30T19:51:09;22.50;65.80
32706;DHT22;19094;50.972;3.538;2023-07-30T19:53:37;22.40;66.00
32706;DHT22;19094;50.972;3.538;2023-07-30T19:56:02;22.50;66.10
32706;DHT22;19094;50.972;3.538;2023-07-30T19:58:30;22.40;65.70
32706;DHT22;19094;50.972;3.538;2023-07-30T20:00:57;22.50;65.90
32706;DHT22;19094;50.972;3.538;2023-07-30T20:03:24;22.60;65.80
32706;DHT22;19094;50.972;3.538;2023-07-30T20:05:50;22.60;65.50
32706;DHT22;19094;50.972;3.538;2023-07-30T20:08:16;22.60;65.50
32706;DHT22;19094;50.972;3.538;2023-07-30T20:10:43;22.60;65.50
32706;DHT22;19094;50.972;3.538;2023-07-30T20:13:08;22.60;65.40
32706;DHT22;19094;50.972;3.538;2023-07-30T20:15:36;22.50;65.60
32706;DHT22;19094;50.972;3.538;2023-07-30T20:18:03;22.40;65.70
32706;DHT22;19094;50.972;3.538;2023-07-30T20:20:30;22.40;65.70
32706;DHT22;19094;50.972;3.538;2023-07-30T20:22:56;22.50;65.90
32706;DHT22;19094;50.972;3.538;2023-07-30T20:25:23;22.50;65.60
32706;DHT22;19094;50.972;3.538;2023-07-30T20:27:50;22.40;65.50
32706;DHT22;19094;50.972;3.538;2023-07-30T20:30:15;22.40;65.80
32706;DHT22;19094;50.972;3.538;2023-07-30T20:32:41;22.40;65.90
32706;DHT22;19094;50.972;3.538;2023-07-30T20:35:07;22.30;66.00
32706;DHT22;19094;50.972;3.538;2023-07-30T20:37:33;22.40;66.10
32706;DHT22;19094;50.972;3.538;2023-07-30T20:39:59;22.40;65.80
32706;DHT22;19094;50.972;3.538;2023-07-30T20:42:27;22.40;65.20
32706;DHT22;19094;50.972;3.538;2023-07-30T20:44:52;22.40;65.30
32706;DHT22;19094;50.972;3.538;2023-07-30T20:47:18;22.30;65.40
32706;DHT22;19094;50.972;3.538;2023-07-30T20:49:44;22.40;65.50
32706;DHT22;19094;50.972;3.538;2023-07-30T20:52:09;22.30;65.70
32706;DHT22;19094;50.972;3.538;2023-07-30T20:54:35;22.30;65.50
32706;DHT22;19094;50.972;3.538;2023-07-30T20:57:01;22.40;65.10
32706;DHT22;19094;50.972;3.538;2023-07-30T20:59:30;22.30;65.60
32706;DHT22;19094;50.972;3.538;2023-07-30T21:01:56;22.30;65.70
32706;DHT22;19094;50.972;3.538;2023-07-30T21:04:22;22.20;65.70
32706;DHT22;19094;50.972;3.538;2023-07-30T21:06:48;22.30;65.80
32706;DHT22;19094;50.972;3.538;2023-07-30T21:09:14;22.30;65.60
32706;DHT22;19094;50.972;3.538;2023-07-30T21:11:40;22.30;65.50
32706;DHT22;19094;50.972;3.538;2023-07-30T21:14:05;22.30;65.50
32706;DHT22;19094;50.972;3.538;2023-07-30T21:16:31;22.20;65.50
32706;DHT22;19094;50.972;3.538;2023-07-30T21:18:57;22.20;65.80
32706;DHT22;19094;50.972;3.538;2023-07-30T21:21:23;22.20;65.60
32706;DHT22;19094;50.972;3.538;2023-07-30T21:23:51;22.20;65.40
32706;DHT22;19094;50.972;3.538;2023-07-30T21:26:17;22.20;65.30
32706;DHT22;19094;50.972;3.538;2023-07-30T21:28:42;22.20;65.30
32706;DHT22;19094;50.972;3.538;2023-07-30T21:31:08;22.20;65.30
32706;DHT22;19094;50.972;3.538;2023-07-30T21:33:35;22.20;65.40
32706;DHT22;19094;50.972;3.538;2023-07-30T21:36:02;22.20;65.00
32706;DHT22;19094;50.972;3.538;2023-07-30T21:38:28;22.20;65.10
32706;DHT22;19094;50.972;3.538;2023-07-30T21:40:54;22.20;64.90
32706;DHT22;19094;50.972;3.538;2023-07-30T21:43:20;22.10;65.00
32706;DHT22;19094;50.972;3.538;2023-07-30T21:45:53;22.10;65.40
32706;DHT22;19094;50.972;3.538;2023-07-30T21:48:20;22.10;65.50
32706;DHT22;19094;50.972;3.538;2023-07-30T21:50:46;22.00;65.60
32706;DHT22;19094;50.972;3.538;2023-07-30T21:53:21;22.00;65.60
32706;DHT22;19094;50.972;3.538;2023-07-30T21:55:47;22.10;65.30
32706;DHT22;19094;50.972;3.538;2023-07-30T21:58:12;22.10;65.40
32706;DHT22;19094;50.972;3.538;2023-07-30T22:00:38;22.00;65.40
32706;DHT22;19094;50.972;3.538;2023-07-30T22:03:04;22.10;65.50
32706;DHT22;19094;50.972;3.538;2023-07-30T22:05:29;22.10;65.30
32706;DHT22;19094;50.972;3.538;2023-07-30T22:07:55;22.10;65.50
32706;DHT22;19094;50.972;3.538;2023-07-30T22:10:20;22.10;65.20
32706;DHT22;19094;50.972;3.538;2023-07-30T22:12:46;22.00;65.10
32706;DHT22;19094;50.972;3.538;2023-07-30T22:15:12;22.10;65.10
32706;DHT22;19094;50.972;3.538;2023-07-30T22:17:37;22.10;64.80
32706;DHT22;19094;50.972;3.538;2023-07-30T22:20:03;22.10;64.90
32706;DHT22;19094;50.972;3.538;2023-07-30T22:22:29;22.10;64.60
32706;DHT22;19094;50.972;3.538;2023-07-30T22:24:55;22.10;64.80
32706;DHT22;19094;50.972;3.538;2023-07-30T22:27:21;22.00;64.90
32706;DHT22;19094;50.972;3.538;2023-07-30T22:29:46;22.10;64.70
32706;DHT22;19094;50.972;3.538;2023-07-30T22:32:12;22.00;64.90
32706;DHT22;19094;50.972;3.538;2023-07-30T22:34:38;22.00;64.70
32706;DHT22;19094;50.972;3.538;2023-07-30T22:37:03;22.10;64.50
32706;DHT22;19094;50.972;3.538;2023-07-30T22:39:29;22.00;64.80
32706;DHT22;19094;50.972;3.538;2023-07-30T22:41:55;22.10;64.50
32706;DHT22;19094;50.972;3.538;2023-07-30T22:44:21;22.00;64.10
32706;DHT22;19094;50.972;3.538;2023-07-30T22:46:46;22.00;64.40
32706;DHT22;19094;50.972;3.538;2023-07-30T22:49:12;22.00;64.20
32706;DHT22;19094;50.972;3.538;2023-07-30T22:51:38;21.90;64.40
32706;DHT22;19094;50.972;3.538;2023-07-30T22:54:03;21.90;65.10
32706;DHT22;19094;50.972;3.538;2023-07-30T22:56:29;21.90;64.20
32706;DHT22;19094;50.972;3.538;2023-07-30T22:58:55;22.00;64.30
32706;DHT22;19094;50.972;3.538;2023-07-30T23:01:20;22.00;63.90
32706;DHT22;19094;50.972;3.538;2023-07-30T23:03:46;22.00;64.00
32706;DHT22;19094;50.972;3.538;2023-07-30T23:06:12;21.90;64.00
32706;DHT22;19094;50.972;3.538;2023-07-30T23:08:37;21.90;64.10
32706;DHT22;19094;50.972;3.538;2023-07-30T23:11:05;21.90;64.30
32706;DHT22;19094;50.972;3.538;2023-07-30T23:13:30;21.90;64.30
32706;DHT22;19094;50.972;3.538;2023-07-30T23:15:56;21.90;64.00
32706;DHT22;19094;50.972;3.538;2023-07-30T23:18:22;21.90;63.90
32706;DHT22;19094;50.972;3.538;2023-07-30T23:20:47;21.90;64.10
32706;DHT22;19094;50.972;3.538;2023-07-30T23:23:13;21.90;64.00
32706;DHT22;19094;50.972;3.538;2023-07-30T23:25:39;21.90;64.10
32706;DHT22;19094;50.972;3.538;2023-07-30T23:28:04;21.90;64.00
32706;DHT22;19094;50.972;3.538;2023-07-30T23:30:30;21.80;64.00
32706;DHT22;19094;50.972;3.538;2023-07-30T23:32:56;21.80;64.00
32706;DHT22;19094;50.972;3.538;2023-07-30T23:35:21;21.80;64.10
32706;DHT22;19094;50.972;3.538;2023-07-30T23:37:47;21.80;64.00
32706;DHT22;19094;50.972;3.538;2023-07-30T23:40:13;21.80;64.00
32706;DHT22;19094;50.972;3.538;2023-07-30T23:42:38;21.80;64.10
32706;DHT22;19094;50.972;3.538;2023-07-30T23:45:05;21.90;63.80
32706;DHT22;19094;50.972;3.538;2023-07-30T23:47:31;21.90;64.00
32706;DHT22;19094;50.972;3.538;2023-07-30T23:49:56;21.90;64.00
32706;DHT22;19094;50.972;3.538;2023-07-30T23:52:22;21.80;63.90
32706;DHT22;19094;50.972;3.538;2023-07-30T23:54:48;21.80;63.80
32706;DHT22;19094;50.972;3.538;2023-07-30T23:57:13;21.80;63.90
32706;DHT22;19094;50.972;3.538;2023-07-30T23:59:39;21.80;63.90
